createdAt,value
2022-11-27T00:01:51.987Z,102180.97
2022-11-27T00:04:21.950Z,102206.16
2022-11-27T00:06:55.551Z,102225.53
2022-11-27T00:09:25.596Z,102219.47
2022-11-27T00:11:55.472Z,102203.63
2022-11-27T00:14:25.344Z,102170.22
2022-11-27T00:16:55.297Z,102169.19
2022-11-27T00:19:25.227Z,102181.09
2022-11-27T00:21:57.999Z,102189.84
2022-11-27T00:24:27.940Z,102165.50
2022-11-27T00:26:57.833Z,102154.88
2022-11-27T00:29:29.228Z,102209.78
2022-11-27T00:31:59.544Z,102141.66
2022-11-27T00:34:29.437Z,102176.75
2022-11-27T00:37:02.007Z,102174.53
2022-11-27T00:39:31.934Z,102131.41
2022-11-27T00:42:01.866Z,102152.84
2022-11-27T00:44:31.891Z,102192.75
2022-11-27T00:47:02.276Z,102136.78
2022-11-27T00:49:32.306Z,102187.63
2022-11-27T00:52:04.752Z,102190.53
2022-11-27T00:54:34.573Z,102179.75
2022-11-27T00:57:04.433Z,102142.28
2022-11-27T00:59:34.652Z,102183.25
2022-11-27T01:02:04.616Z,102108.81
2022-11-27T01:04:34.507Z,102179.56
2022-11-27T01:07:07.026Z,102138.00
2022-11-27T01:09:36.935Z,102170.38
2022-11-27T01:12:07.665Z,102100.06
2022-11-27T01:14:38.108Z,102155.22
2022-11-27T01:17:08.218Z,102157.06
2022-11-27T01:19:38.070Z,102150.31
2022-11-27T01:22:10.642Z,102063.19
2022-11-27T01:24:40.700Z,102132.13
2022-11-27T01:27:10.765Z,102094.59
2022-11-27T01:29:40.832Z,102070.59
2022-11-27T01:32:10.691Z,102120.94
2022-11-27T01:34:40.623Z,102138.78
2022-11-27T01:37:13.192Z,102125.16
2022-11-27T01:39:43.237Z,102107.94
2022-11-27T01:42:13.772Z,102116.59
2022-11-27T01:44:58.332Z,102109.38
2022-11-27T01:47:47.672Z,102105.97
2022-11-27T01:50:24.134Z,102130.03
2022-11-27T01:53:02.830Z,102125.38
2022-11-27T01:55:36.618Z,102108.81
2022-11-27T01:58:10.837Z,102084.25
2022-11-27T02:00:41.195Z,102091.97
2022-11-27T02:03:11.228Z,102121.16
2022-11-27T02:05:41.285Z,102120.38
2022-11-27T02:08:17.197Z,102105.09
2022-11-27T02:10:52.218Z,102114.97
2022-11-27T02:13:28.705Z,102063.78
2022-11-27T02:16:08.737Z,102108.56
2022-11-27T02:18:46.307Z,102086.84
2022-11-27T02:21:22.850Z,102060.66
2022-11-27T02:24:22.477Z,102095.88
2022-11-27T02:27:20.862Z,102114.72
2022-11-27T02:29:57.549Z,102049.03
2022-11-27T02:32:32.419Z,102102.38
2022-11-27T02:35:07.406Z,102099.34
2022-11-27T02:37:42.490Z,102103.56
2022-11-27T02:40:16.678Z,102038.06
2022-11-27T02:42:50.916Z,102102.50
2022-11-27T02:45:27.881Z,102099.66
2022-11-27T02:47:59.818Z,102038.25
2022-11-27T02:50:33.623Z,102090.59
2022-11-27T02:53:08.091Z,102067.53
2022-11-27T02:55:41.075Z,102068.72
2022-11-27T02:58:15.660Z,102083.88
2022-11-27T03:00:50.148Z,102081.75
2022-11-27T03:03:24.324Z,102076.19
2022-11-27T03:05:58.355Z,102029.59
2022-11-27T03:08:33.832Z,102034.44
2022-11-27T03:11:06.943Z,102053.41
2022-11-27T03:13:40.087Z,102044.13
2022-11-27T03:16:18.507Z,102044.19
2022-11-27T03:18:59.474Z,101984.47
2022-11-27T03:21:35.192Z,102045.69
2022-11-27T03:24:05.455Z,102030.00
2022-11-27T03:26:35.499Z,102025.13
2022-11-27T03:29:07.943Z,102043.63
2022-11-27T03:31:40.870Z,102031.75
2022-11-27T03:34:11.359Z,102016.50
2022-11-27T03:36:41.339Z,102012.31
2022-11-27T03:39:11.937Z,102038.44
2022-11-27T03:41:49.794Z,102042.00
2022-11-27T03:44:30.876Z,102047.06
2022-11-27T03:47:13.138Z,102040.06
2022-11-27T03:49:57.009Z,102024.09
2022-11-27T03:52:33.397Z,102010.00
2022-11-27T03:55:11.166Z,102038.25
2022-11-27T03:57:46.325Z,102050.63
2022-11-27T04:00:17.799Z,101986.38
2022-11-27T04:02:53.128Z,102050.69
2022-11-27T04:05:23.572Z,101979.19
2022-11-27T04:07:53.524Z,101973.63
2022-11-27T04:10:24.247Z,102042.00
2022-11-27T04:12:54.123Z,101985.41
2022-11-27T04:15:24.039Z,102043.97
2022-11-27T04:17:56.520Z,102029.16
2022-11-27T04:20:26.587Z,102031.69
2022-11-27T04:22:56.453Z,101970.22
2022-11-27T04:25:26.613Z,101944.81
2022-11-27T04:27:56.485Z,102033.84
2022-11-27T04:30:26.526Z,102022.06
2022-11-27T04:32:58.979Z,102018.09
2022-11-27T04:35:28.808Z,102025.38
2022-11-27T04:37:59.670Z,102004.06
2022-11-27T04:40:29.560Z,102006.78
2022-11-27T04:42:59.413Z,101952.63
2022-11-27T04:45:29.339Z,101978.03
2022-11-27T04:48:01.775Z,101997.56
2022-11-27T04:50:32.776Z,101998.13
2022-11-27T04:53:02.811Z,102000.56
2022-11-27T04:55:32.623Z,101977.38
2022-11-27T04:58:02.477Z,101981.59
2022-11-27T05:00:32.386Z,101965.94
2022-11-27T05:03:04.968Z,101985.38
2022-11-27T05:05:34.953Z,101948.34
2022-11-27T05:08:04.759Z,101928.78
2022-11-27T05:10:34.599Z,101971.53
2022-11-27T05:13:04.447Z,101904.47
2022-11-27T05:15:34.249Z,101950.09
2022-11-27T05:18:07.033Z,101975.66
2022-11-27T05:20:36.897Z,101957.09
2022-11-27T05:23:06.714Z,101912.75
2022-11-27T05:25:36.527Z,101942.59
2022-11-27T05:28:06.632Z,101906.63
2022-11-27T05:30:36.490Z,101869.50
2022-11-27T05:33:08.963Z,101945.53
2022-11-27T05:35:38.794Z,101940.34
2022-11-27T05:38:08.986Z,101882.31
2022-11-27T05:40:38.867Z,101932.69
2022-11-27T05:43:08.848Z,101897.88
2022-11-27T05:45:40.240Z,101937.53
2022-11-27T05:48:12.720Z,101940.72
2022-11-27T05:50:42.680Z,101945.09
2022-11-27T05:53:12.517Z,101878.19
2022-11-27T05:55:42.386Z,101861.69
2022-11-27T05:58:12.235Z,101910.75
2022-11-27T06:00:42.055Z,101939.41
2022-11-27T06:03:14.501Z,101880.13
2022-11-27T06:05:45.507Z,101926.78
2022-11-27T06:08:15.344Z,101864.75
2022-11-27T06:10:45.239Z,101902.34
2022-11-27T06:13:15.172Z,101912.06
2022-11-27T06:15:45.576Z,101923.97
2022-11-27T06:18:18.023Z,101920.97
2022-11-27T06:20:51.712Z,101901.25
2022-11-27T06:23:22.851Z,101867.47
2022-11-27T06:25:52.710Z,101934.94
2022-11-27T06:28:22.525Z,101884.97
2022-11-27T06:30:52.569Z,101914.22
2022-11-27T06:33:25.025Z,101906.53
2022-11-27T06:35:57.791Z,101901.69
2022-11-27T06:38:27.632Z,101869.25
2022-11-27T06:40:57.488Z,101840.84
2022-11-27T06:43:27.377Z,101822.47
2022-11-27T06:46:01.075Z,101900.75
2022-11-27T06:48:33.879Z,101901.53
2022-11-27T06:51:04.313Z,101895.31
2022-11-27T06:53:35.883Z,101880.81
2022-11-27T06:56:06.145Z,101887.53
2022-11-27T06:58:36.083Z,101857.56
2022-11-27T07:01:07.609Z,101850.09
2022-11-27T07:03:40.135Z,101835.13
2022-11-27T07:06:11.999Z,101826.88
2022-11-27T07:08:42.330Z,101866.16
2022-11-27T07:11:16.638Z,101806.00
2022-11-27T07:13:46.775Z,101869.06
2022-11-27T07:16:17.767Z,101874.81
2022-11-27T07:18:52.095Z,101849.59
2022-11-27T07:21:23.441Z,101838.28
2022-11-27T07:23:56.415Z,101742.31
2022-11-27T07:26:28.386Z,101863.72
2022-11-27T07:28:59.006Z,101822.47
2022-11-27T07:31:31.067Z,101868.28
2022-11-27T07:34:06.943Z,101863.72
2022-11-27T07:36:40.770Z,101812.78
2022-11-27T07:39:10.709Z,101851.56
2022-11-27T07:41:40.633Z,101862.25
2022-11-27T07:44:10.631Z,101813.44
2022-11-27T07:46:40.550Z,101850.16
2022-11-27T07:49:13.105Z,101813.81
2022-11-27T07:51:42.974Z,101863.38
2022-11-27T07:54:13.089Z,101845.75
2022-11-27T07:56:42.963Z,101840.53
2022-11-27T07:59:12.872Z,101833.25
2022-11-27T08:01:44.888Z,101838.94
2022-11-27T08:04:18.502Z,101776.41
2022-11-27T08:06:48.437Z,101807.88
2022-11-27T08:09:18.422Z,101813.31
2022-11-27T08:11:49.311Z,101785.16
2022-11-27T08:14:19.375Z,101843.97
2022-11-27T08:16:50.333Z,101824.84
2022-11-27T08:19:24.305Z,101853.81
2022-11-27T08:21:54.236Z,101751.88
2022-11-27T08:24:24.123Z,101750.44
2022-11-27T08:26:55.049Z,101776.00
2022-11-27T08:29:31.194Z,101771.09
2022-11-27T08:32:04.762Z,101799.66
2022-11-27T08:34:37.301Z,101815.75
2022-11-27T08:37:08.534Z,101809.53
2022-11-27T08:39:38.693Z,101760.47
2022-11-27T08:42:08.687Z,101824.66
2022-11-27T08:44:39.821Z,101784.31
2022-11-27T08:47:10.888Z,101765.81
2022-11-27T08:49:46.230Z,101805.81
2022-11-27T08:52:16.434Z,101811.66
2022-11-27T08:54:47.257Z,101820.09
2022-11-27T08:57:19.800Z,101821.88
2022-11-27T08:59:49.726Z,101820.38
2022-11-27T09:02:20.766Z,101817.06
2022-11-27T09:04:54.535Z,101765.53
2022-11-27T09:07:25.588Z,101762.91
2022-11-27T09:09:55.692Z,101790.97
2022-11-27T09:12:27.631Z,101778.44
2022-11-27T09:14:57.571Z,101788.41
2022-11-27T09:17:28.650Z,101795.81
2022-11-27T09:20:02.229Z,101749.66
2022-11-27T09:22:33.272Z,101714.78
2022-11-27T09:25:04.554Z,101760.19
2022-11-27T09:27:34.536Z,101777.72
2022-11-27T09:30:04.558Z,101503.81
2022-11-27T09:32:35.601Z,101724.75
2022-11-27T09:35:09.832Z,101760.75
2022-11-27T09:37:41.739Z,101751.31
2022-11-27T09:40:17.804Z,101776.03
2022-11-27T09:42:56.504Z,101769.06
2022-11-27T09:45:28.212Z,101734.72
2022-11-27T09:48:03.611Z,101746.16
2022-11-27T09:50:39.532Z,101691.94
2022-11-27T09:53:21.839Z,101682.97
2022-11-27T09:55:56.181Z,101721.50
2022-11-27T09:58:38.217Z,101678.44
2022-11-27T10:01:14.931Z,101694.31
2022-11-27T10:03:48.072Z,101689.41
2022-11-27T10:06:29.905Z,101757.34
2022-11-27T10:09:15.351Z,101753.00
2022-11-27T10:11:53.112Z,101749.59
2022-11-27T10:14:37.680Z,101741.31
2022-11-27T10:17:15.692Z,101723.97
2022-11-27T10:19:54.795Z,101669.84
2022-11-27T10:22:35.892Z,101702.56
2022-11-27T10:25:17.323Z,101716.06
2022-11-27T10:28:00.887Z,101728.81
2022-11-27T10:30:32.574Z,101710.31
2022-11-27T10:33:05.449Z,101729.38
2022-11-27T10:35:36.659Z,101683.09
2022-11-27T10:38:16.484Z,101630.97
2022-11-27T10:40:56.308Z,101688.97
2022-11-27T10:43:28.666Z,101664.31
2022-11-27T10:46:02.388Z,101721.63
2022-11-27T10:48:35.539Z,101714.56
2022-11-27T10:51:05.562Z,101660.25
2022-11-27T10:53:43.085Z,101699.63
2022-11-27T10:56:39.875Z,101714.63
2022-11-27T10:59:14.534Z,101655.47
2022-11-27T11:01:46.792Z,101657.13
2022-11-27T11:04:36.876Z,101622.06
2022-11-27T11:07:26.120Z,101679.81
2022-11-27T11:09:59.819Z,101617.34
2022-11-27T11:12:29.841Z,101629.97
2022-11-27T11:15:05.083Z,101700.56
2022-11-27T11:17:37.960Z,101662.22
2022-11-27T11:20:18.366Z,101693.59
2022-11-27T11:22:49.937Z,101680.88
2022-11-27T11:25:24.953Z,101617.22
2022-11-27T11:27:56.211Z,101667.03
2022-11-27T11:30:34.767Z,101663.34
2022-11-27T11:33:07.266Z,101584.09
2022-11-27T11:35:39.156Z,101600.34
2022-11-27T11:38:17.649Z,101654.38
2022-11-27T11:41:02.461Z,101633.72
2022-11-27T11:43:35.749Z,101648.59
2022-11-27T11:46:22.945Z,101654.06
2022-11-27T11:48:57.947Z,101643.81
2022-11-27T11:52:05.384Z,101637.84
2022-11-27T11:54:52.456Z,101656.81
2022-11-27T11:57:51.376Z,101638.69
2022-11-27T12:00:30.141Z,101631.53
2022-11-27T12:03:21.623Z,101610.69
2022-11-27T12:06:09.793Z,101601.84
2022-11-27T12:09:02.770Z,101624.84
2022-11-27T12:11:40.605Z,101623.09
2022-11-27T12:14:27.437Z,101575.31
2022-11-27T12:17:07.323Z,101625.09
2022-11-27T12:20:05.995Z,101614.56
2022-11-27T12:22:51.519Z,101540.06
2022-11-27T12:25:32.803Z,101586.44
2022-11-27T12:28:26.971Z,101538.94
2022-11-27T12:31:08.624Z,101534.84
2022-11-27T12:33:53.656Z,101526.53
2022-11-27T12:36:33.969Z,101559.81
2022-11-27T12:39:14.085Z,101589.47
2022-11-27T12:42:03.428Z,101561.13
2022-11-27T12:44:45.089Z,101557.97
2022-11-27T12:47:21.984Z,101496.69
2022-11-27T12:49:56.353Z,101542.94
2022-11-27T12:52:28.886Z,101505.66
2022-11-27T12:55:04.802Z,101555.81
2022-11-27T12:57:42.687Z,101542.03
2022-11-27T13:00:19.099Z,101556.69
2022-11-27T13:03:02.804Z,101549.94
2022-11-27T13:05:37.636Z,101519.75
2022-11-27T13:08:13.572Z,101485.25
2022-11-27T13:10:48.897Z,101543.63
2022-11-27T13:13:25.001Z,101466.13
2022-11-27T13:15:59.190Z,101537.97
2022-11-27T13:18:39.502Z,101443.69
2022-11-27T13:21:15.114Z,101461.28
2022-11-27T13:23:46.138Z,101443.22
2022-11-27T13:26:24.848Z,101449.97
2022-11-27T13:28:59.918Z,101485.03
2022-11-27T13:31:35.474Z,101475.56
2022-11-27T13:34:12.916Z,101457.94
2022-11-27T13:36:47.009Z,101504.31
2022-11-27T13:39:27.378Z,101490.53
2022-11-27T13:42:09.093Z,101473.28
2022-11-27T13:44:44.806Z,101401.41
2022-11-27T13:47:19.930Z,101490.22
2022-11-27T13:50:01.759Z,101480.88
2022-11-27T13:52:32.270Z,101448.34
2022-11-27T13:55:05.575Z,101423.31
2022-11-27T13:57:38.530Z,101408.28
2022-11-27T14:00:13.318Z,101425.53
2022-11-27T14:02:47.641Z,101375.66
2022-11-27T14:05:23.054Z,101447.41
2022-11-27T14:07:55.498Z,101428.28
2022-11-27T14:10:29.660Z,101453.06
2022-11-27T14:13:02.470Z,101363.22
2022-11-27T14:15:34.297Z,101396.00
2022-11-27T14:18:10.289Z,101444.41
2022-11-27T14:20:50.772Z,101432.09
2022-11-27T14:23:30.069Z,101434.56
2022-11-27T14:26:14.687Z,101427.53
2022-11-27T14:28:46.715Z,101415.66
2022-11-27T14:31:31.668Z,101402.38
2022-11-27T14:34:24.324Z,101381.38
2022-11-27T14:36:57.642Z,101409.41
2022-11-27T14:39:30.686Z,101401.13
2022-11-27T14:42:02.385Z,101392.53
2022-11-27T14:44:33.014Z,101344.53
2022-11-27T14:47:06.781Z,101344.94
2022-11-27T14:49:38.641Z,101387.28
2022-11-27T14:52:18.113Z,101316.38
2022-11-27T14:54:48.289Z,101381.03
2022-11-27T14:57:28.905Z,101324.03
2022-11-27T15:00:18.411Z,101335.19
2022-11-27T15:02:52.047Z,101368.56
2022-11-27T15:05:25.553Z,101355.22
2022-11-27T15:08:00.984Z,101319.25
2022-11-27T15:10:35.210Z,101367.66
2022-11-27T15:13:06.153Z,101301.22
2022-11-27T15:15:41.666Z,101327.41
2022-11-27T15:18:17.413Z,101270.78
2022-11-27T15:20:48.357Z,101347.97
2022-11-27T15:23:24.489Z,101305.19
2022-11-27T15:26:12.548Z,101343.75
2022-11-27T15:28:45.359Z,101347.75
2022-11-27T15:31:29.767Z,101320.28
2022-11-27T15:34:02.609Z,101333.91
2022-11-27T15:36:43.390Z,101291.75
2022-11-27T15:39:23.703Z,101288.09
2022-11-27T15:41:58.486Z,101256.59
2022-11-27T15:44:33.186Z,101321.25
2022-11-27T15:47:07.172Z,101292.56
2022-11-27T15:49:37.163Z,101234.41
2022-11-27T15:52:08.112Z,101266.59
2022-11-27T15:54:41.990Z,101203.63
2022-11-27T15:57:12.187Z,101256.91
2022-11-27T15:59:42.323Z,101203.31
2022-11-27T16:02:17.859Z,101258.56
2022-11-27T16:04:50.182Z,101274.38
2022-11-27T16:07:21.237Z,101227.56
2022-11-27T16:09:54.746Z,101250.00
2022-11-27T16:12:25.011Z,101231.78
2022-11-27T16:14:56.082Z,101281.19
2022-11-27T16:17:27.093Z,101271.53
2022-11-27T16:19:58.035Z,101272.31
2022-11-27T16:22:29.061Z,101290.72
2022-11-27T16:25:02.644Z,101268.78
2022-11-27T16:27:33.553Z,101275.69
2022-11-27T16:30:03.619Z,101276.41
2022-11-27T16:32:35.446Z,101224.06
2022-11-27T16:35:08.620Z,101198.34
2022-11-27T16:37:39.928Z,101233.97
2022-11-27T16:40:15.652Z,101228.16
2022-11-27T16:42:47.998Z,101224.00
2022-11-27T16:45:18.129Z,101239.81
2022-11-27T16:47:49.115Z,101188.06
2022-11-27T16:50:22.391Z,101260.47
2022-11-27T16:52:54.524Z,101194.44
2022-11-27T16:55:30.702Z,101204.59
2022-11-27T16:58:02.895Z,101245.44
2022-11-27T17:00:33.937Z,101198.56
2022-11-27T17:03:04.834Z,101241.53
2022-11-27T17:05:39.882Z,101228.38
2022-11-27T17:08:09.888Z,101171.81
2022-11-27T17:10:44.184Z,101238.59
2022-11-27T17:13:15.093Z,101223.38
2022-11-27T17:15:45.301Z,101176.38
2022-11-27T17:18:17.003Z,101167.78
2022-11-27T17:20:46.979Z,101194.25
2022-11-27T17:23:18.027Z,101234.13
2022-11-27T17:25:51.576Z,101171.00
2022-11-27T17:28:21.746Z,101224.59
2022-11-27T17:30:52.934Z,101156.22
2022-11-27T17:33:22.860Z,101154.72
2022-11-27T17:35:52.731Z,101177.13
2022-11-27T17:38:23.768Z,101218.09
2022-11-27T17:40:56.532Z,101145.78
2022-11-27T17:43:28.103Z,101170.38
2022-11-27T17:45:58.169Z,101157.09
2022-11-27T17:48:29.435Z,101215.06
2022-11-27T17:51:02.674Z,101199.63
2022-11-27T17:53:32.744Z,101159.25
2022-11-27T17:56:09.313Z,101195.78
2022-11-27T17:58:39.810Z,101190.22
2022-11-27T18:01:18.683Z,101189.66
2022-11-27T18:03:50.259Z,101128.28
2022-11-27T18:06:22.858Z,101130.72
2022-11-27T18:08:55.357Z,101132.63
2022-11-27T18:11:30.053Z,101166.50
2022-11-27T18:14:02.660Z,101184.13
2022-11-27T18:16:35.222Z,101185.91
2022-11-27T18:19:08.014Z,101180.88
2022-11-27T18:21:39.082Z,101180.47
2022-11-27T18:24:25.920Z,101179.75
2022-11-27T18:27:09.216Z,101147.59
2022-11-27T18:29:40.814Z,101165.94
2022-11-27T18:32:13.767Z,101142.63
2022-11-27T18:34:45.197Z,101160.53
2022-11-27T18:37:15.895Z,101148.31
2022-11-27T18:39:47.747Z,101084.75
2022-11-27T18:42:21.401Z,101143.78
2022-11-27T18:44:53.492Z,101155.00
2022-11-27T18:47:23.713Z,101095.28
2022-11-27T18:49:55.728Z,101145.25
2022-11-27T18:52:26.728Z,101106.28
2022-11-27T18:54:56.823Z,101099.94
2022-11-27T18:57:29.500Z,101166.22
2022-11-27T18:59:59.529Z,101123.38
2022-11-27T19:02:29.607Z,101158.84
2022-11-27T19:04:59.645Z,101099.88
2022-11-27T19:07:30.698Z,101093.50
2022-11-27T19:10:00.905Z,101134.25
2022-11-27T19:12:33.580Z,101140.91
2022-11-27T19:15:03.484Z,101086.47
2022-11-27T19:17:34.931Z,101076.69
2022-11-27T19:20:06.831Z,101048.22
2022-11-27T19:22:36.932Z,101152.75
2022-11-27T19:25:09.019Z,101118.22
2022-11-27T19:27:41.785Z,101063.31
2022-11-27T19:30:12.797Z,101071.59
2022-11-27T19:32:43.768Z,101085.25
2022-11-27T19:35:14.821Z,101115.06
2022-11-27T19:37:45.013Z,101130.63
2022-11-27T19:40:17.142Z,101119.66
2022-11-27T19:42:55.567Z,101114.66
2022-11-27T19:45:29.835Z,101122.50
2022-11-27T19:48:01.278Z,101119.72
2022-11-27T19:50:32.590Z,101116.06
2022-11-27T19:53:05.002Z,101114.94
2022-11-27T19:55:37.305Z,101101.69
2022-11-27T19:58:11.244Z,101066.88
2022-11-27T20:00:42.588Z,101095.81
2022-11-27T20:03:14.758Z,101095.03
2022-11-27T20:05:44.705Z,101105.03
2022-11-27T20:08:15.174Z,101035.63
2022-11-27T20:10:52.039Z,101107.50
2022-11-27T20:13:24.616Z,101051.22
2022-11-27T20:15:55.611Z,101098.78
2022-11-27T20:18:27.965Z,101077.19
2022-11-27T20:21:07.691Z,101097.47
2022-11-27T20:23:39.067Z,101102.59
2022-11-27T20:26:11.512Z,101098.38
2022-11-27T20:28:45.571Z,101086.16
2022-11-27T20:31:23.129Z,101104.16
2022-11-27T20:33:54.371Z,101074.97
2022-11-27T20:36:25.818Z,101050.25
2022-11-27T20:38:57.886Z,101030.09
2022-11-27T20:41:30.165Z,101030.56
2022-11-27T20:44:04.880Z,101062.88
2022-11-27T20:46:36.261Z,100970.34
2022-11-27T20:49:07.334Z,101052.50
2022-11-27T20:51:37.921Z,101010.56
2022-11-27T20:54:13.123Z,101052.41
2022-11-27T20:56:45.655Z,101063.75
2022-11-27T20:59:19.235Z,101070.09
2022-11-27T21:01:49.518Z,100999.16
2022-11-27T21:04:23.822Z,101041.03
2022-11-27T21:06:56.668Z,100987.78
2022-11-27T21:09:27.971Z,101040.63
2022-11-27T21:12:00.187Z,100986.50
2022-11-27T21:14:33.641Z,101029.00
2022-11-27T21:17:05.230Z,101036.41
2022-11-27T21:19:37.155Z,101014.94
2022-11-27T21:22:07.562Z,100975.22
2022-11-27T21:24:37.491Z,100994.25
2022-11-27T21:27:08.155Z,100960.53
2022-11-27T21:29:42.010Z,100977.66
2022-11-27T21:32:14.492Z,101036.09
2022-11-27T21:34:44.756Z,100966.69
2022-11-27T21:37:16.015Z,101007.88
2022-11-27T21:39:47.038Z,101031.78
2022-11-27T21:42:18.573Z,100972.44
2022-11-27T21:44:51.713Z,101023.94
2022-11-27T21:47:22.221Z,101034.09
2022-11-27T21:49:53.042Z,101022.75
2022-11-27T21:52:24.133Z,100939.44
2022-11-27T21:54:55.957Z,100956.97
2022-11-27T21:57:25.859Z,100995.47
2022-11-27T21:59:59.451Z,100981.84
2022-11-27T22:02:29.361Z,100982.13
2022-11-27T22:05:00.298Z,100999.03
2022-11-27T22:07:30.334Z,100990.81
2022-11-27T22:10:01.246Z,100990.50
2022-11-27T22:12:32.240Z,100975.25
2022-11-27T22:15:05.171Z,100972.88
2022-11-27T22:17:36.170Z,100980.63
2022-11-27T22:20:08.402Z,100934.06
2022-11-27T22:22:39.555Z,100975.28
2022-11-27T22:25:10.061Z,100915.44
2022-11-27T22:27:40.571Z,100963.97
2022-11-27T22:30:14.122Z,100907.19
2022-11-27T22:32:44.112Z,100909.56
2022-11-27T22:35:14.237Z,100908.25
2022-11-27T22:37:45.470Z,100882.97
2022-11-27T22:40:16.979Z,100872.66
2022-11-27T22:42:48.231Z,100868.06
2022-11-27T22:45:21.109Z,100865.34
2022-11-27T22:47:52.012Z,100811.72
2022-11-27T22:50:22.902Z,100853.50
2022-11-27T22:52:58.075Z,100831.31
2022-11-27T22:55:28.255Z,100780.56
2022-11-27T22:57:58.234Z,100779.50
2022-11-27T23:00:30.795Z,100846.97
2022-11-27T23:03:01.123Z,100815.75
2022-11-27T23:05:31.162Z,100827.19
2022-11-27T23:08:01.643Z,100853.19
2022-11-27T23:10:32.056Z,100848.78
2022-11-27T23:13:02.027Z,100825.63
2022-11-27T23:15:35.468Z,100882.91
2022-11-27T23:18:06.800Z,100841.66
2022-11-27T23:20:37.861Z,100848.78
2022-11-27T23:23:07.856Z,100815.56
2022-11-27T23:25:37.995Z,100896.78
2022-11-27T23:28:09.370Z,100846.84
2022-11-27T23:30:43.063Z,100878.34
2022-11-27T23:33:13.018Z,100892.69
2022-11-27T23:35:43.978Z,100873.25
2022-11-27T23:38:13.872Z,100875.19
2022-11-27T23:40:43.823Z,100820.78
2022-11-27T23:43:14.728Z,100884.50
2022-11-27T23:45:47.389Z,100828.34
2022-11-27T23:48:18.329Z,100912.00
2022-11-27T23:50:49.274Z,100880.78
2022-11-27T23:53:20.231Z,100834.66
2022-11-27T23:55:50.232Z,100832.31
2022-11-27T23:58:21.215Z,100861.09
